createdAt,value
2023-03-29T00:00:12.440Z,87.69
2023-03-29T00:01:12.427Z,88.10
2023-03-29T00:02:12.486Z,87.79
2023-03-29T00:03:12.611Z,87.03
2023-03-29T00:04:12.592Z,86.99
2023-03-29T00:05:12.529Z,85.33
2023-03-29T00:06:12.518Z,85.64
2023-03-29T00:07:12.538Z,85.33
2023-03-29T00:08:12.551Z,84.88
2023-03-29T00:09:12.573Z,84.67
2023-03-29T00:10:12.631Z,85.08
2023-03-29T00:11:12.610Z,84.77
2023-03-29T00:12:12.620Z,85.19
2023-03-29T00:13:12.635Z,85.39
2023-03-29T00:14:12.651Z,85.60
2023-03-29T00:15:12.698Z,86.43
2023-03-29T00:16:12.687Z,85.81
2023-03-29T00:17:12.911Z,85.50
2023-03-29T00:18:12.719Z,85.60
2023-03-29T00:19:12.737Z,84.98
2023-03-29T00:20:12.783Z,85.08
2023-03-29T00:21:12.783Z,85.60
2023-03-29T00:22:12.802Z,85.71
2023-03-29T00:23:12.808Z,85.50
2023-03-29T00:24:12.820Z,84.15
2023-03-29T00:25:12.883Z,84.56
2023-03-29T00:26:12.851Z,83.63
2023-03-29T00:27:12.869Z,85.50
2023-03-29T00:28:12.894Z,84.25
2023-03-29T00:29:12.904Z,84.36
2023-03-29T00:30:12.946Z,84.77
2023-03-29T00:31:13.054Z,84.36
2023-03-29T00:32:12.955Z,84.56
2023-03-29T00:33:12.983Z,84.56
2023-03-29T00:34:12.991Z,84.77
2023-03-29T00:35:13.030Z,85.71
2023-03-29T00:36:13.064Z,85.50
2023-03-29T00:37:13.032Z,85.81
2023-03-29T00:38:13.064Z,84.98
2023-03-29T00:39:13.083Z,86.22
2023-03-29T00:40:13.110Z,86.12
2023-03-29T00:41:13.104Z,86.95
2023-03-29T00:42:13.145Z,86.64
2023-03-29T00:43:13.135Z,87.82
2023-03-29T00:44:13.151Z,86.57
2023-03-29T00:45:13.194Z,86.26
2023-03-29T00:46:13.211Z,88.51
2023-03-29T00:47:13.199Z,88.54
2023-03-29T00:48:13.279Z,88.96
2023-03-29T00:49:13.234Z,88.13
2023-03-29T00:50:13.281Z,88.65
2023-03-29T00:51:13.267Z,90.10
2023-03-29T00:52:13.289Z,90.10
2023-03-29T00:53:13.301Z,91.66
2023-03-29T00:54:13.322Z,91.66
2023-03-29T00:55:13.369Z,91.35
2023-03-29T00:56:13.359Z,91.97
2023-03-29T00:57:13.421Z,92.28
2023-03-29T00:58:13.395Z,92.59
2023-03-29T00:59:13.408Z,92.59
2023-03-29T01:00:13.448Z,92.59
2023-03-29T01:01:13.445Z,92.90
2023-03-29T01:02:13.488Z,93.74
2023-03-29T01:03:13.886Z,92.63
2023-03-29T01:04:13.510Z,93.05
2023-03-29T01:05:13.551Z,93.37
2023-03-29T01:06:13.533Z,93.57
2023-03-29T01:07:13.676Z,92.94
2023-03-29T01:08:13.565Z,93.26
2023-03-29T01:09:13.588Z,93.22
2023-03-29T01:10:13.626Z,94.36
2023-03-29T01:11:13.619Z,94.78
2023-03-29T01:12:13.633Z,94.78
2023-03-29T01:13:13.654Z,94.98
2023-03-29T01:14:13.694Z,95.03
2023-03-29T01:15:13.726Z,94.82
2023-03-29T01:16:13.732Z,94.82
2023-03-29T01:17:13.723Z,95.03
2023-03-29T01:18:13.748Z,94.82
2023-03-29T01:19:13.763Z,95.03
2023-03-29T01:20:13.801Z,95.13
2023-03-29T01:21:13.793Z,95.13
2023-03-29T01:22:13.814Z,95.13
2023-03-29T01:23:13.833Z,95.34
2023-03-29T01:24:13.865Z,95.44
2023-03-29T01:25:13.898Z,95.44
2023-03-29T01:26:13.895Z,95.03
2023-03-29T01:27:13.901Z,95.13
2023-03-29T01:28:13.925Z,95.44
2023-03-29T01:29:13.937Z,95.86
2023-03-29T01:30:13.983Z,95.65
2023-03-29T01:31:14.007Z,95.75
2023-03-29T01:32:14.000Z,95.44
2023-03-29T01:33:14.013Z,95.44
2023-03-29T01:34:14.039Z,95.54
2023-03-29T01:35:14.087Z,95.44
2023-03-29T01:36:14.156Z,95.34
2023-03-29T01:37:14.096Z,95.34
2023-03-29T01:38:14.118Z,95.54
2023-03-29T01:39:14.132Z,94.82
2023-03-29T01:40:14.184Z,95.13
2023-03-29T01:41:14.164Z,94.92
2023-03-29T01:42:14.192Z,95.13
2023-03-29T01:43:14.203Z,95.03
2023-03-29T01:44:14.223Z,94.82
2023-03-29T01:45:14.278Z,94.82
2023-03-29T01:46:14.306Z,94.71
2023-03-29T01:47:14.281Z,94.30
2023-03-29T01:48:14.300Z,94.71
2023-03-29T01:49:14.300Z,94.71
2023-03-29T01:50:14.350Z,94.61
2023-03-29T01:51:14.339Z,94.92
2023-03-29T01:52:14.372Z,94.40
2023-03-29T01:53:14.375Z,94.51
2023-03-29T01:54:14.397Z,94.30
2023-03-29T01:55:14.435Z,94.30
2023-03-29T01:56:14.435Z,94.82
2023-03-29T01:57:14.551Z,95.09
2023-03-29T01:58:14.468Z,95.03
2023-03-29T01:59:14.486Z,95.03
2023-03-29T02:00:14.534Z,95.44
2023-03-29T02:01:14.562Z,95.44
2023-03-29T02:02:14.616Z,95.23
2023-03-29T02:03:14.750Z,94.71
2023-03-29T02:04:14.582Z,94.71
2023-03-29T02:05:14.625Z,94.78
2023-03-29T02:06:14.617Z,94.82
2023-03-29T02:07:14.640Z,94.92
2023-03-29T02:08:14.656Z,95.23
2023-03-29T02:09:14.667Z,95.13
2023-03-29T02:10:14.724Z,95.44
2023-03-29T02:11:14.694Z,95.54
2023-03-29T02:12:14.720Z,95.34
2023-03-29T02:13:14.736Z,95.54
2023-03-29T02:14:14.774Z,95.44
2023-03-29T02:15:14.794Z,95.03
2023-03-29T02:16:14.898Z,94.92
2023-03-29T02:17:14.801Z,95.03
2023-03-29T02:18:14.821Z,95.03
2023-03-29T02:19:14.837Z,94.92
2023-03-29T02:20:15.092Z,94.82
2023-03-29T02:21:14.875Z,95.13
2023-03-29T02:22:14.896Z,95.23
2023-03-29T02:23:14.910Z,95.75
2023-03-29T02:24:14.934Z,95.44
2023-03-29T02:25:14.950Z,95.75
2023-03-29T02:26:14.975Z,95.23
2023-03-29T02:27:14.989Z,95.34
2023-03-29T02:28:15.009Z,95.34
2023-03-29T02:29:15.051Z,95.34
2023-03-29T02:30:15.070Z,95.54
2023-03-29T02:31:15.094Z,94.92
2023-03-29T02:32:15.085Z,94.82
2023-03-29T02:33:15.121Z,94.71
2023-03-29T02:34:15.108Z,94.92
2023-03-29T02:35:15.124Z,95.34
2023-03-29T02:36:15.190Z,95.13
2023-03-29T02:37:15.156Z,95.03
2023-03-29T02:38:15.181Z,94.92
2023-03-29T02:39:15.186Z,95.13
2023-03-29T02:40:15.224Z,95.23
2023-03-29T02:41:15.228Z,95.44
2023-03-29T02:42:15.240Z,95.65
2023-03-29T02:43:15.257Z,95.54
2023-03-29T02:44:15.282Z,95.13
2023-03-29T02:45:15.290Z,95.34
2023-03-29T02:46:15.393Z,95.44
2023-03-29T02:47:15.326Z,95.65
2023-03-29T02:48:15.347Z,95.75
2023-03-29T02:49:15.365Z,95.65
2023-03-29T02:50:15.392Z,95.86
2023-03-29T02:51:16.878Z,95.86
2023-03-29T02:52:15.426Z,95.96
2023-03-29T02:53:15.433Z,95.75
2023-03-29T02:54:15.455Z,95.92
2023-03-29T02:55:15.458Z,96.02
2023-03-29T02:56:15.484Z,96.02
2023-03-29T02:57:15.558Z,95.92
2023-03-29T02:58:15.634Z,95.81
2023-03-29T02:59:15.538Z,95.81
2023-03-29T03:00:15.561Z,95.81
2023-03-29T03:01:15.570Z,95.61
2023-03-29T03:02:15.602Z,95.71
2023-03-29T03:03:15.768Z,95.50
2023-03-29T03:04:15.657Z,95.29
2023-03-29T03:05:15.625Z,95.71
2023-03-29T03:06:15.665Z,95.61
2023-03-29T03:07:15.657Z,95.61
2023-03-29T03:08:15.676Z,95.61
2023-03-29T03:09:15.753Z,95.61
2023-03-29T03:10:15.712Z,95.92
2023-03-29T03:11:15.751Z,95.81
2023-03-29T03:12:15.740Z,95.71
2023-03-29T03:13:15.753Z,95.61
2023-03-29T03:14:15.774Z,95.50
2023-03-29T03:15:15.790Z,95.71
2023-03-29T03:16:15.900Z,95.92
2023-03-29T03:17:15.857Z,95.96
2023-03-29T03:18:15.858Z,95.86
2023-03-29T03:19:15.864Z,95.44
2023-03-29T03:20:15.881Z,95.34
2023-03-29T03:21:15.913Z,95.71
2023-03-29T03:22:15.930Z,96.02
2023-03-29T03:23:15.947Z,95.65
2023-03-29T03:24:15.967Z,94.88
2023-03-29T03:25:15.973Z,94.98
2023-03-29T03:26:16.008Z,95.50
2023-03-29T03:27:16.000Z,95.40
2023-03-29T03:28:16.027Z,95.71
2023-03-29T03:29:16.061Z,95.65
2023-03-29T03:30:16.058Z,95.54
2023-03-29T03:31:16.160Z,95.54
2023-03-29T03:32:16.091Z,95.75
2023-03-29T03:33:16.101Z,95.86
2023-03-29T03:34:16.115Z,95.86
2023-03-29T03:35:16.132Z,95.75
2023-03-29T03:36:16.190Z,95.65
2023-03-29T03:37:16.162Z,95.65
2023-03-29T03:38:16.187Z,95.65
2023-03-29T03:39:16.202Z,95.75
2023-03-29T03:40:16.221Z,95.75
2023-03-29T03:41:16.254Z,95.44
2023-03-29T03:42:16.245Z,95.65
2023-03-29T03:43:16.260Z,95.75
2023-03-29T03:44:16.280Z,95.86
2023-03-29T03:45:16.290Z,95.75
2023-03-29T03:46:16.415Z,95.86
2023-03-29T03:47:16.322Z,95.86
2023-03-29T03:48:16.343Z,96.06
2023-03-29T03:49:16.356Z,96.02
2023-03-29T03:50:16.378Z,95.71
2023-03-29T03:51:16.417Z,95.50
2023-03-29T03:52:16.424Z,95.50
2023-03-29T03:53:16.430Z,95.61
2023-03-29T03:54:16.461Z,94.88
2023-03-29T03:55:16.474Z,95.19
2023-03-29T03:56:16.547Z,95.40
2023-03-29T03:57:16.554Z,94.78
2023-03-29T03:58:16.526Z,94.98
2023-03-29T03:59:16.542Z,94.88
2023-03-29T04:00:16.567Z,94.67
2023-03-29T04:01:16.602Z,93.95
2023-03-29T04:02:16.673Z,94.05
2023-03-29T04:03:16.713Z,94.42
2023-03-29T04:04:16.736Z,94.32
2023-03-29T04:05:16.647Z,94.63
2023-03-29T04:06:16.690Z,93.80
2023-03-29T04:07:16.688Z,92.66
2023-03-29T04:08:16.716Z,92.66
2023-03-29T04:09:16.726Z,93.07
2023-03-29T04:10:16.747Z,93.18
2023-03-29T04:11:16.779Z,93.28
2023-03-29T04:12:16.776Z,93.49
2023-03-29T04:13:16.793Z,93.49
2023-03-29T04:14:16.829Z,92.76
2023-03-29T04:15:16.837Z,92.61
2023-03-29T04:16:16.931Z,92.97
2023-03-29T04:17:16.866Z,92.30
2023-03-29T04:18:16.946Z,92.61
2023-03-29T04:19:16.901Z,92.20
2023-03-29T04:20:16.914Z,91.68
2023-03-29T04:21:18.310Z,91.78
2023-03-29T04:22:16.957Z,92.20
2023-03-29T04:23:16.973Z,92.41
2023-03-29T04:24:16.989Z,92.61
2023-03-29T04:25:17.010Z,92.61
2023-03-29T04:26:17.044Z,92.82
2023-03-29T04:27:17.037Z,92.10
2023-03-29T04:28:17.064Z,92.51
2023-03-29T04:29:17.092Z,92.82
2023-03-29T04:30:17.099Z,92.41
2023-03-29T04:31:17.188Z,92.41
2023-03-29T04:32:17.137Z,92.72
2023-03-29T04:33:17.148Z,92.61
2023-03-29T04:34:17.170Z,92.72
2023-03-29T04:35:17.185Z,92.93
2023-03-29T04:36:17.285Z,92.82
2023-03-29T04:37:17.222Z,93.44
2023-03-29T04:38:17.243Z,93.75
2023-03-29T04:39:17.261Z,93.85
2023-03-29T04:40:17.284Z,93.85
2023-03-29T04:41:17.320Z,93.65
2023-03-29T04:42:17.315Z,93.23
2023-03-29T04:43:17.332Z,93.75
2023-03-29T04:44:17.357Z,93.75
2023-03-29T04:45:17.404Z,93.33
2023-03-29T04:46:17.431Z,93.23
2023-03-29T04:47:17.405Z,93.44
2023-03-29T04:48:17.421Z,93.33
2023-03-29T04:49:17.446Z,93.13
2023-03-29T04:50:17.455Z,93.13
2023-03-29T04:51:17.494Z,93.23
2023-03-29T04:52:17.495Z,93.33
2023-03-29T04:53:17.511Z,93.33
2023-03-29T04:54:17.529Z,93.54
2023-03-29T04:55:17.555Z,93.44
2023-03-29T04:56:17.596Z,93.33
2023-03-29T04:57:17.609Z,93.13
2023-03-29T04:58:18.547Z,93.13
2023-03-29T04:59:17.622Z,93.33
2023-03-29T05:00:17.643Z,93.02
2023-03-29T05:01:17.712Z,93.02
2023-03-29T05:02:17.643Z,93.02
2023-03-29T05:03:17.682Z,93.02
2023-03-29T05:04:17.755Z,93.23
2023-03-29T05:05:17.702Z,93.02
2023-03-29T05:06:17.732Z,92.82
2023-03-29T05:07:17.737Z,93.23
2023-03-29T05:08:17.756Z,92.93
2023-03-29T05:09:17.776Z,92.93
2023-03-29T05:10:17.804Z,93.50
2023-03-29T05:11:17.830Z,92.88
2023-03-29T05:12:17.838Z,92.88
2023-03-29T05:13:17.852Z,92.47
2023-03-29T05:14:17.883Z,91.95
2023-03-29T05:15:17.892Z,91.95
2023-03-29T05:16:17.982Z,91.49
2023-03-29T05:17:17.950Z,90.77
2023-03-29T05:18:17.949Z,91.08
2023-03-29T05:19:17.970Z,91.39
2023-03-29T05:20:18.089Z,90.66
2023-03-29T05:21:18.037Z,90.35
2023-03-29T05:22:18.029Z,90.45
2023-03-29T05:23:18.045Z,90.66
2023-03-29T05:24:18.057Z,90.66
2023-03-29T05:25:18.094Z,90.87
2023-03-29T05:26:18.115Z,90.97
2023-03-29T05:27:18.126Z,91.28
2023-03-29T05:28:18.188Z,91.60
2023-03-29T05:29:18.159Z,90.97
2023-03-29T05:30:18.182Z,91.60
2023-03-29T05:31:18.237Z,91.91
2023-03-29T05:32:18.205Z,91.60
2023-03-29T05:33:18.226Z,91.60
2023-03-29T05:34:18.241Z,91.49
2023-03-29T05:35:18.269Z,91.70
2023-03-29T05:36:18.355Z,91.28
2023-03-29T05:37:18.314Z,91.76
2023-03-29T05:38:18.318Z,91.24
2023-03-29T05:39:18.335Z,91.24
2023-03-29T05:40:18.359Z,90.72
2023-03-29T05:41:18.390Z,90.41
2023-03-29T05:42:18.385Z,91.03
2023-03-29T05:43:18.410Z,90.83
2023-03-29T05:44:18.425Z,91.14
2023-03-29T05:45:18.453Z,91.45
2023-03-29T05:46:18.537Z,91.14
2023-03-29T05:47:18.477Z,90.93
2023-03-29T05:48:18.490Z,91.20
2023-03-29T05:49:18.511Z,91.09
2023-03-29T05:50:18.528Z,90.78
2023-03-29T05:51:18.572Z,90.68
2023-03-29T05:52:18.564Z,90.89
2023-03-29T05:53:18.589Z,90.89
2023-03-29T05:54:18.606Z,90.89
2023-03-29T05:55:18.640Z,90.47
2023-03-29T05:56:18.660Z,90.78
2023-03-29T05:57:18.721Z,90.37
2023-03-29T05:58:18.669Z,90.37
2023-03-29T05:59:18.702Z,90.37
2023-03-29T06:00:18.707Z,91.36
2023-03-29T06:01:18.776Z,91.57
2023-03-29T06:02:18.782Z,91.47
2023-03-29T06:03:21.348Z,90.84
2023-03-29T06:04:18.859Z,90.53
2023-03-29T06:05:18.788Z,90.12
2023-03-29T06:06:18.832Z,90.44
2023-03-29T06:07:18.825Z,89.61
2023-03-29T06:08:18.843Z,89.61
2023-03-29T06:09:18.863Z,90.12
2023-03-29T06:10:18.874Z,89.61
2023-03-29T06:11:18.916Z,89.36
2023-03-29T06:12:18.903Z,90.08
2023-03-29T06:13:18.930Z,89.15
2023-03-29T06:14:18.953Z,88.53
2023-03-29T06:15:18.958Z,88.74
2023-03-29T06:16:19.036Z,88.12
2023-03-29T06:17:19.152Z,88.32
2023-03-29T06:18:19.012Z,88.28
2023-03-29T06:19:19.023Z,88.39
2023-03-29T06:20:19.043Z,88.28
2023-03-29T06:21:19.082Z,87.56
2023-03-29T06:22:19.075Z,87.35
2023-03-29T06:23:19.098Z,87.35
2023-03-29T06:24:19.115Z,87.35
2023-03-29T06:25:19.130Z,88.14
2023-03-29T06:26:19.162Z,88.14
2023-03-29T06:27:19.168Z,87.73
2023-03-29T06:28:19.174Z,87.10
2023-03-29T06:29:19.204Z,86.90
2023-03-29T06:30:19.215Z,87.10
2023-03-29T06:31:19.295Z,85.83
2023-03-29T06:32:19.264Z,86.13
2023-03-29T06:33:19.273Z,85.93
2023-03-29T06:34:19.300Z,85.58
2023-03-29T06:35:19.313Z,87.02
2023-03-29T06:36:19.345Z,85.47
2023-03-29T06:37:19.344Z,85.89
2023-03-29T06:38:19.384Z,84.51
2023-03-29T06:39:19.383Z,84.30
2023-03-29T06:40:19.397Z,84.41
2023-03-29T06:41:19.439Z,84.30
2023-03-29T06:42:21.617Z,84.41
2023-03-29T06:43:19.467Z,85.23
2023-03-29T06:44:19.474Z,84.92
2023-03-29T06:45:22.438Z,84.88
2023-03-29T06:46:19.587Z,83.23
2023-03-29T06:47:19.534Z,83.33
2023-03-29T06:48:19.551Z,83.75
2023-03-29T06:49:19.573Z,83.33
2023-03-29T06:50:19.598Z,83.75
2023-03-29T06:51:21.886Z,82.92
2023-03-29T06:52:19.613Z,84.06
2023-03-29T06:53:19.636Z,84.16
2023-03-29T06:54:19.649Z,83.03
2023-03-29T06:55:19.683Z,83.50
2023-03-29T06:56:19.703Z,83.19
2023-03-29T06:57:19.747Z,82.26
2023-03-29T06:58:19.722Z,82.98
2023-03-29T06:59:19.744Z,83.50
2023-03-29T07:00:19.751Z,83.40
2023-03-29T07:01:19.821Z,83.40
2023-03-29T07:02:19.788Z,83.19
2023-03-29T07:03:19.827Z,82.47
2023-03-29T07:04:19.841Z,82.47
2023-03-29T07:05:19.848Z,82.74
2023-03-29T07:06:19.892Z,82.78
2023-03-29T07:07:19.952Z,82.23
2023-03-29T07:08:19.891Z,82.54
2023-03-29T07:09:19.924Z,83.05
2023-03-29T07:10:19.930Z,83.36
2023-03-29T07:11:19.971Z,83.26
2023-03-29T07:12:19.958Z,83.36
2023-03-29T07:13:19.997Z,82.95
2023-03-29T07:14:20.002Z,82.84
2023-03-29T07:15:20.020Z,82.43
2023-03-29T07:16:20.105Z,82.43
2023-03-29T07:17:20.059Z,83.47
2023-03-29T07:18:20.062Z,83.15
2023-03-29T07:19:20.080Z,82.33
2023-03-29T07:20:20.102Z,83.05
2023-03-29T07:21:20.144Z,82.54
2023-03-29T07:22:20.139Z,82.60
2023-03-29T07:23:20.152Z,82.09
2023-03-29T07:24:20.172Z,81.26
2023-03-29T07:25:20.195Z,82.70
2023-03-29T07:26:29.024Z,82.29
2023-03-29T07:27:20.222Z,81.98
2023-03-29T07:28:20.217Z,81.67
2023-03-29T07:29:20.356Z,82.40
2023-03-29T07:30:20.254Z,82.70
2023-03-29T07:31:20.297Z,82.40
2023-03-29T07:32:20.302Z,81.77
2023-03-29T07:33:20.375Z,81.67
2023-03-29T07:34:20.320Z,82.09
2023-03-29T07:35:20.339Z,81.26
2023-03-29T07:36:20.435Z,81.37
2023-03-29T07:37:20.375Z,80.85
2023-03-29T07:38:20.513Z,80.85
2023-03-29T07:39:20.424Z,81.84
2023-03-29T07:40:20.436Z,81.84
2023-03-29T07:41:20.473Z,80.51
2023-03-29T07:42:20.466Z,79.88
2023-03-29T07:43:20.485Z,80.09
2023-03-29T07:44:20.498Z,80.30
2023-03-29T07:45:20.534Z,80.26
2023-03-29T07:46:20.624Z,80.47
2023-03-29T07:47:20.542Z,80.77
2023-03-29T07:48:20.560Z,79.03
2023-03-29T07:49:22.197Z,79.54
2023-03-29T07:50:20.583Z,80.05
2023-03-29T07:51:20.625Z,80.47
2023-03-29T07:52:20.615Z,79.13
2023-03-29T07:53:20.640Z,79.23
2023-03-29T07:54:20.658Z,79.30
2023-03-29T07:55:20.678Z,79.09
2023-03-29T07:56:20.728Z,78.37
2023-03-29T07:57:20.770Z,79.30
2023-03-29T07:58:20.727Z,78.99
2023-03-29T07:59:20.771Z,78.99
2023-03-29T08:00:20.834Z,78.23
2023-03-29T08:01:20.943Z,78.54
2023-03-29T08:02:20.803Z,78.44
2023-03-29T08:03:20.968Z,77.41
2023-03-29T08:04:20.903Z,77.51
2023-03-29T08:05:29.226Z,77.17
2023-03-29T08:06:20.898Z,77.68
2023-03-29T08:07:20.952Z,76.31
2023-03-29T08:08:20.909Z,76.72
2023-03-29T08:09:20.932Z,75.76
2023-03-29T08:10:20.949Z,75.66
2023-03-29T08:11:21.014Z,75.56
2023-03-29T08:12:23.210Z,75.73
2023-03-29T08:13:21.018Z,75.52
2023-03-29T08:14:21.012Z,75.32
2023-03-29T08:15:21.036Z,74.60
2023-03-29T08:16:21.593Z,73.54
2023-03-29T08:17:21.077Z,74.15
2023-03-29T08:18:21.079Z,72.82
2023-03-29T08:19:21.098Z,73.54
2023-03-29T08:20:21.118Z,72.61
2023-03-29T08:21:21.332Z,72.10
2023-03-29T08:22:21.157Z,72.58
2023-03-29T08:23:21.197Z,71.66
2023-03-29T08:24:21.208Z,72.44
2023-03-29T08:25:21.208Z,72.55
2023-03-29T08:26:21.248Z,71.42
2023-03-29T08:27:21.257Z,71.01
2023-03-29T08:28:21.276Z,71.42
2023-03-29T08:29:21.270Z,71.93
2023-03-29T08:30:21.299Z,70.70
2023-03-29T08:31:21.394Z,70.60
2023-03-29T08:32:21.330Z,71.01
2023-03-29T08:33:21.407Z,71.52
2023-03-29T08:34:21.342Z,71.42
2023-03-29T08:35:21.388Z,70.43
2023-03-29T08:36:21.414Z,70.43
2023-03-29T08:37:21.409Z,70.64
2023-03-29T08:38:21.398Z,71.35
2023-03-29T08:39:21.425Z,70.73
2023-03-29T08:40:21.471Z,70.94
2023-03-29T08:41:21.454Z,71.15
2023-03-29T08:42:21.492Z,71.45
2023-03-29T08:43:21.527Z,71.04
2023-03-29T08:44:21.513Z,72.07
2023-03-29T08:45:21.522Z,71.86
2023-03-29T08:46:21.570Z,71.97
2023-03-29T08:47:21.649Z,71.35
2023-03-29T08:48:21.563Z,71.86
2023-03-29T08:49:21.578Z,72.17
2023-03-29T08:50:21.600Z,72.17
2023-03-29T08:51:21.615Z,71.35
2023-03-29T08:52:21.650Z,71.56
2023-03-29T08:53:21.651Z,71.35
2023-03-29T08:54:21.668Z,71.45
2023-03-29T08:55:21.687Z,72.58
2023-03-29T08:56:21.702Z,72.38
2023-03-29T08:57:21.780Z,72.24
2023-03-29T08:58:21.730Z,72.03
2023-03-29T08:59:21.748Z,71.62
2023-03-29T09:00:21.754Z,72.03
2023-03-29T09:01:21.799Z,70.91
2023-03-29T09:02:21.858Z,71.01
2023-03-29T09:03:21.939Z,71.25
2023-03-29T09:04:21.837Z,70.73
2023-03-29T09:05:21.825Z,71.76
2023-03-29T09:06:21.868Z,72.34
2023-03-29T09:07:23.532Z,71.11
2023-03-29T09:08:21.889Z,72.03
2023-03-29T09:09:21.895Z,70.81
2023-03-29T09:10:21.919Z,71.73
2023-03-29T09:11:21.928Z,69.68
2023-03-29T09:12:21.984Z,69.24
2023-03-29T09:13:22.005Z,69.95
2023-03-29T09:14:21.986Z,70.67
2023-03-29T09:15:21.990Z,70.87
2023-03-29T09:16:22.055Z,70.06
2023-03-29T09:17:22.021Z,70.47
2023-03-29T09:18:22.040Z,70.67
2023-03-29T09:19:22.046Z,70.47
2023-03-29T09:20:22.093Z,69.24
2023-03-29T09:21:22.086Z,69.54
2023-03-29T09:22:22.096Z,69.82
2023-03-29T09:23:22.099Z,68.79
2023-03-29T09:24:22.122Z,67.67
2023-03-29T09:25:22.123Z,69.31
2023-03-29T09:26:22.141Z,68.49
2023-03-29T09:27:22.175Z,68.35
2023-03-29T09:28:22.192Z,69.07
2023-03-29T09:29:22.195Z,69.04
2023-03-29T09:30:22.206Z,68.42
2023-03-29T09:31:22.246Z,67.68
2023-03-29T09:32:22.268Z,67.98
2023-03-29T09:33:22.250Z,66.11
2023-03-29T09:34:22.270Z,66.62
2023-03-29T09:35:22.334Z,66.01
2023-03-29T09:36:22.327Z,66.42
2023-03-29T09:37:22.344Z,64.48
2023-03-29T09:38:22.341Z,65.60
2023-03-29T09:39:22.359Z,65.60
2023-03-29T09:40:22.375Z,64.96
2023-03-29T09:41:22.395Z,65.26
2023-03-29T09:42:22.424Z,64.55
2023-03-29T09:43:22.416Z,65.34
2023-03-29T09:44:30.875Z,65.23
2023-03-29T09:45:22.477Z,66.05
2023-03-29T09:46:22.755Z,66.15
2023-03-29T09:47:22.490Z,65.74
2023-03-29T09:48:22.495Z,65.67
2023-03-29T09:49:22.513Z,65.67
2023-03-29T09:50:30.796Z,67.65
2023-03-29T09:51:22.533Z,65.70
2023-03-29T09:52:22.572Z,65.80
2023-03-29T09:53:22.558Z,65.80
2023-03-29T09:54:22.579Z,64.78
2023-03-29T09:55:22.591Z,65.70
2023-03-29T09:56:22.615Z,65.84
2023-03-29T09:57:22.721Z,65.43
2023-03-29T09:58:22.690Z,66.66
2023-03-29T09:59:22.678Z,67.68
2023-03-29T10:00:22.687Z,67.47
2023-03-29T10:01:22.781Z,67.07
2023-03-29T10:02:22.796Z,66.35
2023-03-29T10:03:22.734Z,66.99
2023-03-29T10:04:22.816Z,67.47
2023-03-29T10:05:22.763Z,67.07
2023-03-29T10:06:22.782Z,66.86
2023-03-29T10:07:22.815Z,67.78
2023-03-29T10:08:22.812Z,68.16
2023-03-29T10:09:22.826Z,66.31
2023-03-29T10:10:22.899Z,66.62
2023-03-29T10:11:22.850Z,66.11
2023-03-29T10:12:22.888Z,66.90
2023-03-29T10:13:22.927Z,67.41
2023-03-29T10:14:22.920Z,65.77
2023-03-29T10:15:29.724Z,66.11
2023-03-29T10:16:23.016Z,65.60
2023-03-29T10:17:23.063Z,65.50
2023-03-29T10:18:22.974Z,65.50
2023-03-29T10:19:22.981Z,65.60
2023-03-29T10:20:23.013Z,66.28
2023-03-29T10:21:23.013Z,66.80
2023-03-29T10:22:23.125Z,65.74
2023-03-29T10:23:25.978Z,64.96
2023-03-29T10:24:23.059Z,64.96
2023-03-29T10:25:23.070Z,64.93
2023-03-29T10:26:23.099Z,64.86
2023-03-29T10:27:23.135Z,65.37
2023-03-29T10:28:23.124Z,66.36
2023-03-29T10:29:23.152Z,66.97
2023-03-29T10:30:23.152Z,64.52
2023-03-29T10:31:23.243Z,65.20
2023-03-29T10:32:23.344Z,64.69
2023-03-29T10:33:23.191Z,63.47
2023-03-29T10:34:23.212Z,63.54
2023-03-29T10:35:23.232Z,61.40
2023-03-29T10:36:23.246Z,62.08
2023-03-29T10:37:23.270Z,64.53
2023-03-29T10:38:23.298Z,62.08
2023-03-29T10:39:23.285Z,61.27
2023-03-29T10:40:23.306Z,61.88
2023-03-29T10:41:23.322Z,60.55
2023-03-29T10:42:23.338Z,59.81
2023-03-29T10:43:23.369Z,59.81
2023-03-29T10:44:23.366Z,59.78
2023-03-29T10:45:23.381Z,60.30
2023-03-29T10:46:23.452Z,60.60
2023-03-29T10:47:23.463Z,59.58
2023-03-29T10:48:23.494Z,59.99
2023-03-29T10:49:23.469Z,60.50
2023-03-29T10:50:23.453Z,58.97
2023-03-29T10:51:23.468Z,59.28
2023-03-29T10:52:23.486Z,58.87
2023-03-29T10:53:23.531Z,58.46
2023-03-29T10:54:23.521Z,58.46
2023-03-29T10:55:23.539Z,57.85
2023-03-29T10:56:23.552Z,57.85
2023-03-29T10:57:23.646Z,59.99
2023-03-29T10:58:23.616Z,59.58
2023-03-29T10:59:23.591Z,58.94
2023-03-29T11:00:23.664Z,57.82
2023-03-29T11:01:23.662Z,58.53
2023-03-29T11:02:23.674Z,59.48
2023-03-29T11:03:23.788Z,57.42
2023-03-29T11:04:23.683Z,58.94
2023-03-29T11:05:23.670Z,58.74
2023-03-29T11:06:23.694Z,60.57
2023-03-29T11:07:23.712Z,59.25
2023-03-29T11:08:23.755Z,58.74
2023-03-29T11:09:23.731Z,58.03
2023-03-29T11:10:23.750Z,60.37
2023-03-29T11:11:23.761Z,58.64
2023-03-29T11:12:23.777Z,59.05
2023-03-29T11:13:23.810Z,58.64
2023-03-29T11:14:23.822Z,58.74
2023-03-29T11:15:23.838Z,58.92
2023-03-29T11:16:23.895Z,57.59
2023-03-29T11:17:23.904Z,58.51
2023-03-29T11:18:23.896Z,59.42
2023-03-29T11:19:23.891Z,56.16
2023-03-29T11:20:23.902Z,57.49
2023-03-29T11:21:23.927Z,56.27
2023-03-29T11:22:23.931Z,58.20
2023-03-29T11:23:23.946Z,57.39
2023-03-29T11:24:23.987Z,57.49
2023-03-29T11:25:23.975Z,57.90
2023-03-29T11:26:23.992Z,57.39
2023-03-29T11:27:24.005Z,57.49
2023-03-29T11:28:24.031Z,58.81
2023-03-29T11:29:24.044Z,57.49
2023-03-29T11:30:24.074Z,55.94
2023-03-29T11:31:24.135Z,55.35
2023-03-29T11:32:24.082Z,54.94
2023-03-29T11:33:24.109Z,55.66
2023-03-29T11:34:24.111Z,55.12
2023-03-29T11:35:24.125Z,55.33
2023-03-29T11:36:24.141Z,54.31
2023-03-29T11:37:24.154Z,53.83
2023-03-29T11:38:24.194Z,54.74
2023-03-29T11:39:24.195Z,55.53
2023-03-29T11:40:24.203Z,55.22
2023-03-29T11:41:24.219Z,55.12
2023-03-29T11:42:24.234Z,54.28
2023-03-29T11:43:24.285Z,54.59
2023-03-29T11:44:24.266Z,55.20
2023-03-29T11:45:24.281Z,54.51
2023-03-29T11:46:24.351Z,55.12
2023-03-29T11:47:24.348Z,55.12
2023-03-29T11:48:24.346Z,54.51
2023-03-29T11:49:24.338Z,54.72
2023-03-29T11:50:24.370Z,54.39
2023-03-29T11:51:24.367Z,52.98
2023-03-29T11:52:24.424Z,52.30
2023-03-29T11:53:24.415Z,53.02
2023-03-29T11:54:24.417Z,54.44
2023-03-29T11:55:24.425Z,55.22
2023-03-29T11:56:24.442Z,53.29
2023-03-29T11:57:24.563Z,54.82
2023-03-29T11:58:25.224Z,54.92
2023-03-29T11:59:24.484Z,54.13
2023-03-29T12:00:24.509Z,54.03
2023-03-29T12:01:24.538Z,55.22
2023-03-29T12:02:24.618Z,53.70
2023-03-29T12:03:24.691Z,54.82
2023-03-29T12:04:24.697Z,54.39
2023-03-29T12:05:24.590Z,55.51
2023-03-29T12:06:24.595Z,55.20
2023-03-29T12:07:24.610Z,54.92
2023-03-29T12:08:24.657Z,54.31
2023-03-29T12:09:24.632Z,54.11
2023-03-29T12:10:24.639Z,54.79
2023-03-29T12:11:24.666Z,53.88
2023-03-29T12:12:24.678Z,55.51
2023-03-29T12:13:24.720Z,53.37
2023-03-29T12:14:26.722Z,53.55
2023-03-29T12:15:24.729Z,54.46
2023-03-29T12:16:24.779Z,52.84
2023-03-29T12:17:24.806Z,53.45
2023-03-29T12:18:24.838Z,51.75
2023-03-29T12:19:24.790Z,53.24
2023-03-29T12:20:24.805Z,52.43
2023-03-29T12:21:24.818Z,51.31
2023-03-29T12:22:24.842Z,52.25
2023-03-29T12:23:24.867Z,54.18
2023-03-29T12:24:24.869Z,56.01
2023-03-29T12:25:24.897Z,53.98
2023-03-29T12:26:24.898Z,54.61
2023-03-29T12:27:24.921Z,55.12
2023-03-29T12:28:24.951Z,56.55
2023-03-29T12:29:24.939Z,55.63
2023-03-29T12:30:24.970Z,53.09
2023-03-29T12:31:25.051Z,53.80
2023-03-29T12:32:25.022Z,54.69
2023-03-29T12:33:25.020Z,54.49
2023-03-29T12:34:25.023Z,55.40
2023-03-29T12:35:25.032Z,56.42
2023-03-29T12:36:25.054Z,53.17
2023-03-29T12:37:25.075Z,53.96
2023-03-29T12:38:25.151Z,53.65
2023-03-29T12:39:25.092Z,54.97
2023-03-29T12:40:25.124Z,53.34
2023-03-29T12:41:25.118Z,53.24
2023-03-29T12:42:25.135Z,53.14
2023-03-29T12:43:25.167Z,53.65
2023-03-29T12:44:25.170Z,55.45
2023-03-29T12:45:25.188Z,55.05
2023-03-29T12:46:25.236Z,56.06
2023-03-29T12:47:25.228Z,55.02
2023-03-29T12:48:25.257Z,55.02
2023-03-29T12:49:25.248Z,54.82
2023-03-29T12:50:25.271Z,52.48
2023-03-29T12:51:25.276Z,54.11
2023-03-29T12:52:25.474Z,52.69